sensor_id;sensor_type;location;lat;lon;timestamp;temperature;humidity
13713;DHT22;6928;50.546;7.120;2022-10-31T00:00:31;11.38;88.24
13713;DHT22;6928;50.546;7.120;2022-10-31T00:02:58;11.42;87.99
13713;DHT22;6928;50.546;7.120;2022-10-31T00:05:25;11.34;88.08
13713;DHT22;6928;50.546;7.120;2022-10-31T00:07:52;11.20;88.11
13713;DHT22;6928;50.546;7.120;2022-10-31T00:10:19;11.40;87.53
13713;DHT22;6928;50.546;7.120;2022-10-31T00:12:46;11.30;87.87
13713;DHT22;6928;50.546;7.120;2022-10-31T00:15:13;11.28;88.09
13713;DHT22;6928;50.546;7.120;2022-10-31T00:17:41;11.50;88.17
13713;DHT22;6928;50.546;7.120;2022-10-31T00:20:09;11.47;87.81
13713;DHT22;6928;50.546;7.120;2022-10-31T00:22:36;11.23;88.46
13713;DHT22;6928;50.546;7.120;2022-10-31T00:25:03;11.23;88.70
13713;DHT22;6928;50.546;7.120;2022-10-31T00:27:30;11.38;88.42
13713;DHT22;6928;50.546;7.120;2022-10-31T00:29:57;11.23;88.56
13713;DHT22;6928;50.546;7.120;2022-10-31T00:32:24;11.29;88.71
13713;DHT22;6928;50.546;7.120;2022-10-31T00:34:52;11.36;88.63
13713;DHT22;6928;50.546;7.120;2022-10-31T00:37:19;11.43;88.14
13713;DHT22;6928;50.546;7.120;2022-10-31T00:39:45;11.29;88.19
13713;DHT22;6928;50.546;7.120;2022-10-31T00:42:14;11.40;88.11
13713;DHT22;6928;50.546;7.120;2022-10-31T00:44:41;11.38;87.68
13713;DHT22;6928;50.546;7.120;2022-10-31T00:47:07;11.32;87.74
13713;DHT22;6928;50.546;7.120;2022-10-31T00:49:34;11.38;88.09
13713;DHT22;6928;50.546;7.120;2022-10-31T00:52:02;11.45;87.73
13713;DHT22;6928;50.546;7.120;2022-10-31T00:54:29;11.01;89.88
13713;DHT22;6928;50.546;7.120;2022-10-31T00:56:57;11.42;88.80
13713;DHT22;6928;50.546;7.120;2022-10-31T00:59:23;11.52;88.12
13713;DHT22;6928;50.546;7.120;2022-10-31T01:01:50;11.52;87.98
13713;DHT22;6928;50.546;7.120;2022-10-31T01:04:17;11.42;87.99
13713;DHT22;6928;50.546;7.120;2022-10-31T01:06:44;11.40;87.99
13713;DHT22;6928;50.546;7.120;2022-10-31T01:09:12;11.07;89.38
13713;DHT22;6928;50.546;7.120;2022-10-31T01:11:39;11.30;88.51
13713;DHT22;6928;50.546;7.120;2022-10-31T01:14:06;11.20;88.66
13713;DHT22;6928;50.546;7.120;2022-10-31T01:16:32;11.15;88.72
13713;DHT22;6928;50.546;7.120;2022-10-31T01:18:59;11.19;88.75
13713;DHT22;6928;50.546;7.120;2022-10-31T01:21:28;11.29;88.71
13713;DHT22;6928;50.546;7.120;2022-10-31T01:23:56;11.28;88.63
13713;DHT22;6928;50.546;7.120;2022-10-31T01:26:26;11.15;88.60
13713;DHT22;6928;50.546;7.120;2022-10-31T01:28:57;11.22;88.59
13713;DHT22;6928;50.546;7.120;2022-10-31T01:31:27;11.12;88.74
13713;DHT22;6928;50.546;7.120;2022-10-31T01:33:54;11.07;88.90
13713;DHT22;6928;50.546;7.120;2022-10-31T01:36:23;11.16;88.70
13713;DHT22;6928;50.546;7.120;2022-10-31T01:38:52;11.14;88.83
13713;DHT22;6928;50.546;7.120;2022-10-31T01:41:22;11.09;88.87
13713;DHT22;6928;50.546;7.120;2022-10-31T01:43:55;11.01;89.03
13713;DHT22;6928;50.546;7.120;2022-10-31T01:46:25;11.01;89.27
13713;DHT22;6928;50.546;7.120;2022-10-31T01:48:55;11.02;89.26
13713;DHT22;6928;50.546;7.120;2022-10-31T01:51:28;10.99;89.38
13713;DHT22;6928;50.546;7.120;2022-10-31T01:54:00;10.94;89.24
13713;DHT22;6928;50.546;7.120;2022-10-31T01:56:28;10.98;89.05
13713;DHT22;6928;50.546;7.120;2022-10-31T01:58:57;11.18;88.53
13713;DHT22;6928;50.546;7.120;2022-10-31T02:01:25;11.18;88.30
13713;DHT22;6928;50.546;7.120;2022-10-31T02:03:52;11.18;88.31
13713;DHT22;6928;50.546;7.120;2022-10-31T02:06:27;11.12;88.33
13713;DHT22;6928;50.546;7.120;2022-10-31T02:08:58;11.09;88.51
13713;DHT22;6928;50.546;7.120;2022-10-31T02:11:28;10.94;88.44
13713;DHT22;6928;50.546;7.120;2022-10-31T02:13:56;10.89;88.81
13713;DHT22;6928;50.546;7.120;2022-10-31T02:16:24;10.84;88.92
13713;DHT22;6928;50.546;7.120;2022-10-31T02:18:51;10.74;88.84
13713;DHT22;6928;50.546;7.120;2022-10-31T02:21:23;10.87;88.78
13713;DHT22;6928;50.546;7.120;2022-10-31T02:27:13;10.78;88.84
13713;DHT22;6928;50.546;7.120;2022-10-31T02:30:04;10.67;89.38
13713;DHT22;6928;50.546;7.120;2022-10-31T02:32:50;10.94;88.80
13713;DHT22;6928;50.546;7.120;2022-10-31T02:35:31;10.98;88.39
13713;DHT22;6928;50.546;7.120;2022-10-31T02:38:13;10.94;88.55
13713;DHT22;6928;50.546;7.120;2022-10-31T02:40:51;10.89;88.46
13713;DHT22;6928;50.546;7.120;2022-10-31T02:43:23;10.84;88.66
13713;DHT22;6928;50.546;7.120;2022-10-31T02:45:58;10.97;88.44
13713;DHT22;6928;50.546;7.120;2022-10-31T02:48:33;10.67;89.37
13713;DHT22;6928;50.546;7.120;2022-10-31T02:51:03;10.40;90.77
13713;DHT22;6928;50.546;7.120;2022-10-31T02:53:32;10.78;89.94
13713;DHT22;6928;50.546;7.120;2022-10-31T02:56:04;10.83;89.11
13713;DHT22;6928;50.546;7.120;2022-10-31T02:58:38;10.80;89.07
13713;DHT22;6928;50.546;7.120;2022-10-31T03:01:44;10.85;88.95
13713;DHT22;6928;50.546;7.120;2022-10-31T03:04:33;10.85;88.62
13713;DHT22;6928;50.546;7.120;2022-10-31T03:07:09;10.83;88.76
13713;DHT22;6928;50.546;7.120;2022-10-31T03:09:45;10.71;89.11
13713;DHT22;6928;50.546;7.120;2022-10-31T03:12:16;10.80;89.09
13713;DHT22;6928;50.546;7.120;2022-10-31T03:14:53;10.85;88.89
13713;DHT22;6928;50.546;7.120;2022-10-31T03:17:28;10.92;88.65
13713;DHT22;6928;50.546;7.120;2022-10-31T03:20:01;10.89;88.53
13713;DHT22;6928;50.546;7.120;2022-10-31T03:22:31;10.83;88.84
13713;DHT22;6928;50.546;7.120;2022-10-31T03:25:02;10.83;88.76
13713;DHT22;6928;50.546;7.120;2022-10-31T03:27:33;10.73;88.85
13713;DHT22;6928;50.546;7.120;2022-10-31T03:30:04;10.74;88.98
13713;DHT22;6928;50.546;7.120;2022-10-31T03:32:36;10.68;89.15
13713;DHT22;6928;50.546;7.120;2022-10-31T03:35:08;10.78;88.71
13713;DHT22;6928;50.546;7.120;2022-10-31T03:37:37;10.83;88.56
13713;DHT22;6928;50.546;7.120;2022-10-31T03:40:08;10.78;88.52
13713;DHT22;6928;50.546;7.120;2022-10-31T03:42:41;10.78;88.86
13713;DHT22;6928;50.546;7.120;2022-10-31T03:45:12;10.74;88.62
13713;DHT22;6928;50.546;7.120;2022-10-31T03:47:40;10.60;88.99
13713;DHT22;6928;50.546;7.120;2022-10-31T03:50:11;10.59;89.30
13713;DHT22;6928;50.546;7.120;2022-10-31T03:52:44;10.74;88.65
13713;DHT22;6928;50.546;7.120;2022-10-31T03:55:18;10.81;88.17
13713;DHT22;6928;50.546;7.120;2022-10-31T03:57:52;10.71;88.40
13713;DHT22;6928;50.546;7.120;2022-10-31T04:00:21;10.57;88.65
13713;DHT22;6928;50.546;7.120;2022-10-31T04:02:53;10.55;89.03
13713;DHT22;6928;50.546;7.120;2022-10-31T04:05:27;10.55;89.04
13713;DHT22;6928;50.546;7.120;2022-10-31T04:07:56;10.44;89.30
13713;DHT22;6928;50.546;7.120;2022-10-31T04:10:26;10.59;88.91
13713;DHT22;6928;50.546;7.120;2022-10-31T04:12:57;10.57;88.93
13713;DHT22;6928;50.546;7.120;2022-10-31T04:15:27;10.57;88.74
13713;DHT22;6928;50.546;7.120;2022-10-31T04:17:58;10.53;88.66
13713;DHT22;6928;50.546;7.120;2022-10-31T04:20:35;10.55;88.70
13713;DHT22;6928;50.546;7.120;2022-10-31T04:23:03;10.50;88.89
13713;DHT22;6928;50.546;7.120;2022-10-31T04:25:30;10.47;89.07
13713;DHT22;6928;50.546;7.120;2022-10-31T04:27:57;10.43;89.19
13713;DHT22;6928;50.546;7.120;2022-10-31T04:30:27;10.37;89.36
13713;DHT22;6928;50.546;7.120;2022-10-31T04:32:54;10.49;89.03
13713;DHT22;6928;50.546;7.120;2022-10-31T04:35:20;10.40;88.92
13713;DHT22;6928;50.546;7.120;2022-10-31T04:37:48;10.23;89.47
13713;DHT22;6928;50.546;7.120;2022-10-31T04:40:16;10.15;89.86
13713;DHT22;6928;50.546;7.120;2022-10-31T04:42:43;10.19;89.80
13713;DHT22;6928;50.546;7.120;2022-10-31T04:45:10;10.28;89.63
13713;DHT22;6928;50.546;7.120;2022-10-31T04:47:36;9.99;90.49
13713;DHT22;6928;50.546;7.120;2022-10-31T04:50:04;9.65;92.28
13713;DHT22;6928;50.546;7.120;2022-10-31T04:52:31;9.58;92.51
13713;DHT22;6928;50.546;7.120;2022-10-31T04:55:00;9.74;92.21
13713;DHT22;6928;50.546;7.120;2022-10-31T04:57:27;10.03;90.97
13713;DHT22;6928;50.546;7.120;2022-10-31T04:59:53;10.01;90.35
13713;DHT22;6928;50.546;7.120;2022-10-31T05:02:20;9.88;90.52
13713;DHT22;6928;50.546;7.120;2022-10-31T05:04:47;9.91;90.70
13713;DHT22;6928;50.546;7.120;2022-10-31T05:07:14;9.95;90.58
13713;DHT22;6928;50.546;7.120;2022-10-31T05:09:40;9.94;90.46
13713;DHT22;6928;50.546;7.120;2022-10-31T05:12:09;9.94;90.48
13713;DHT22;6928;50.546;7.120;2022-10-31T05:14:35;9.81;90.67
13713;DHT22;6928;50.546;7.120;2022-10-31T05:17:02;10.01;90.68
13713;DHT22;6928;50.546;7.120;2022-10-31T05:19:29;10.01;90.76
13713;DHT22;6928;50.546;7.120;2022-10-31T05:21:56;10.15;90.06
13713;DHT22;6928;50.546;7.120;2022-10-31T05:24:22;10.12;89.74
13713;DHT22;6928;50.546;7.120;2022-10-31T05:26:49;10.25;89.42
13713;DHT22;6928;50.546;7.120;2022-10-31T05:29:18;10.28;89.29
13713;DHT22;6928;50.546;7.120;2022-10-31T05:31:44;10.20;89.25
13713;DHT22;6928;50.546;7.120;2022-10-31T05:34:11;10.13;89.17
13713;DHT22;6928;50.546;7.120;2022-10-31T05:36:38;9.98;89.50
13713;DHT22;6928;50.546;7.120;2022-10-31T05:39:10;9.92;89.86
13713;DHT22;6928;50.546;7.120;2022-10-31T05:41:37;9.87;90.22
13713;DHT22;6928;50.546;7.120;2022-10-31T05:44:04;9.84;90.22
13713;DHT22;6928;50.546;7.120;2022-10-31T05:46:32;9.92;90.00
13713;DHT22;6928;50.546;7.120;2022-10-31T05:48:59;9.92;90.11
13713;DHT22;6928;50.546;7.120;2022-10-31T05:51:26;9.95;89.97
13713;DHT22;6928;50.546;7.120;2022-10-31T05:53:53;10.08;89.78
13713;DHT22;6928;50.546;7.120;2022-10-31T05:56:19;10.13;89.47
13713;DHT22;6928;50.546;7.120;2022-10-31T05:58:46;10.12;89.37
13713;DHT22;6928;50.546;7.120;2022-10-31T06:01:13;10.19;89.00
13713;DHT22;6928;50.546;7.120;2022-10-31T06:03:41;10.16;89.10
13713;DHT22;6928;50.546;7.120;2022-10-31T06:06:08;10.22;89.00
13713;DHT22;6928;50.546;7.120;2022-10-31T06:08:35;10.08;89.38
13713;DHT22;6928;50.546;7.120;2022-10-31T06:11:02;10.16;89.28
13713;DHT22;6928;50.546;7.120;2022-10-31T06:13:28;10.25;88.87
13713;DHT22;6928;50.546;7.120;2022-10-31T06:15:55;10.03;90.28
13713;DHT22;6928;50.546;7.120;2022-10-31T06:18:22;10.13;89.67
13713;DHT22;6928;50.546;7.120;2022-10-31T06:20:51;10.10;89.53
13713;DHT22;6928;50.546;7.120;2022-10-31T06:23:17;10.02;89.82
13713;DHT22;6928;50.546;7.120;2022-10-31T06:25:48;9.99;89.96
13713;DHT22;6928;50.546;7.120;2022-10-31T06:28:15;9.99;89.97
13713;DHT22;6928;50.546;7.120;2022-10-31T06:30:42;10.03;89.95
13713;DHT22;6928;50.546;7.120;2022-10-31T06:33:10;10.15;89.81
13713;DHT22;6928;50.546;7.120;2022-10-31T06:35:37;9.87;90.74
13713;DHT22;6928;50.546;7.120;2022-10-31T06:38:05;10.09;90.08
13713;DHT22;6928;50.546;7.120;2022-10-31T06:40:32;10.26;89.68
13713;DHT22;6928;50.546;7.120;2022-10-31T06:43:00;10.20;89.69
13713;DHT22;6928;50.546;7.120;2022-10-31T06:45:27;10.26;89.78
13713;DHT22;6928;50.546;7.120;2022-10-31T06:47:55;10.33;89.50
13713;DHT22;6928;50.546;7.120;2022-10-31T06:50:23;10.39;89.58
13713;DHT22;6928;50.546;7.120;2022-10-31T06:52:51;10.44;89.34
13713;DHT22;6928;50.546;7.120;2022-10-31T06:55:19;10.46;89.44
13713;DHT22;6928;50.546;7.120;2022-10-31T06:57:54;10.40;89.60
13713;DHT22;6928;50.546;7.120;2022-10-31T07:00:22;10.44;89.51
13713;DHT22;6928;50.546;7.120;2022-10-31T07:03:00;10.30;89.78
13713;DHT22;6928;50.546;7.120;2022-10-31T07:05:28;10.03;91.44
13713;DHT22;6928;50.546;7.120;2022-10-31T07:07:57;10.28;91.08
13713;DHT22;6928;50.546;7.120;2022-10-31T07:10:28;10.39;90.44
13713;DHT22;6928;50.546;7.120;2022-10-31T07:12:56;10.56;89.97
13713;DHT22;6928;50.546;7.120;2022-10-31T07:15:23;10.53;90.42
13713;DHT22;6928;50.546;7.120;2022-10-31T07:17:50;10.64;90.14
13713;DHT22;6928;50.546;7.120;2022-10-31T07:20:17;10.56;90.23
13713;DHT22;6928;50.546;7.120;2022-10-31T07:22:44;10.59;90.23
13713;DHT22;6928;50.546;7.120;2022-10-31T07:25:11;10.39;90.97
13713;DHT22;6928;50.546;7.120;2022-10-31T07:27:42;10.30;91.81
13713;DHT22;6928;50.546;7.120;2022-10-31T07:30:13;10.57;91.13
13713;DHT22;6928;50.546;7.120;2022-10-31T07:32:44;10.63;90.58
13713;DHT22;6928;50.546;7.120;2022-10-31T07:35:14;10.68;90.37
13713;DHT22;6928;50.546;7.120;2022-10-31T07:37:42;11.08;90.88
13713;DHT22;6928;50.546;7.120;2022-10-31T07:40:11;10.83;90.25
13713;DHT22;6928;50.546;7.120;2022-10-31T07:42:42;10.92;90.12
13713;DHT22;6928;50.546;7.120;2022-10-31T07:45:13;10.87;90.12
13713;DHT22;6928;50.546;7.120;2022-10-31T07:47:41;10.95;90.14
13713;DHT22;6928;50.546;7.120;2022-10-31T07:50:12;11.01;90.03
13713;DHT22;6928;50.546;7.120;2022-10-31T07:52:39;11.11;90.23
13713;DHT22;6928;50.546;7.120;2022-10-31T07:55:07;10.95;90.62
13713;DHT22;6928;50.546;7.120;2022-10-31T07:57:34;10.94;90.65
13713;DHT22;6928;50.546;7.120;2022-10-31T08:00:05;11.08;90.16
13713;DHT22;6928;50.546;7.120;2022-10-31T08:02:33;11.22;89.96
13713;DHT22;6928;50.546;7.120;2022-10-31T08:04:59;11.09;90.05
13713;DHT22;6928;50.546;7.120;2022-10-31T08:07:27;11.07;90.33
13713;DHT22;6928;50.546;7.120;2022-10-31T08:09:55;11.04;90.36
13713;DHT22;6928;50.546;7.120;2022-10-31T08:12:22;11.15;90.16
13713;DHT22;6928;50.546;7.120;2022-10-31T08:14:49;11.25;89.93
13713;DHT22;6928;50.546;7.120;2022-10-31T08:17:17;11.18;90.10
13713;DHT22;6928;50.546;7.120;2022-10-31T08:19:44;11.22;90.37
13713;DHT22;6928;50.546;7.120;2022-10-31T08:22:11;11.38;89.79
13713;DHT22;6928;50.546;7.120;2022-10-31T08:24:38;11.39;89.90
13713;DHT22;6928;50.546;7.120;2022-10-31T08:27:05;11.46;89.72
13713;DHT22;6928;50.546;7.120;2022-10-31T08:29:31;11.43;89.73
13713;DHT22;6928;50.546;7.120;2022-10-31T08:31:58;11.52;89.14
13713;DHT22;6928;50.546;7.120;2022-10-31T08:34:27;11.45;89.72
13713;DHT22;6928;50.546;7.120;2022-10-31T08:36:53;11.56;89.41
13713;DHT22;6928;50.546;7.120;2022-10-31T08:39:20;11.60;89.20
13713;DHT22;6928;50.546;7.120;2022-10-31T08:41:47;11.56;89.34
13713;DHT22;6928;50.546;7.120;2022-10-31T08:44:14;11.56;89.39
13713;DHT22;6928;50.546;7.120;2022-10-31T08:46:42;11.59;88.92
13713;DHT22;6928;50.546;7.120;2022-10-31T08:49:08;11.67;88.87
13713;DHT22;6928;50.546;7.120;2022-10-31T08:51:37;11.70;88.94
13713;DHT22;6928;50.546;7.120;2022-10-31T08:54:04;11.67;88.89
13713;DHT22;6928;50.546;7.120;2022-10-31T08:56:31;11.74;88.77
13713;DHT22;6928;50.546;7.120;2022-10-31T08:58:58;11.91;88.76
13713;DHT22;6928;50.546;7.120;2022-10-31T09:01:25;11.90;89.15
13713;DHT22;6928;50.546;7.120;2022-10-31T09:03:51;11.90;88.91
13713;DHT22;6928;50.546;7.120;2022-10-31T09:06:18;11.98;89.16
13713;DHT22;6928;50.546;7.120;2022-10-31T09:08:47;11.99;88.98
13713;DHT22;6928;50.546;7.120;2022-10-31T09:11:13;12.01;88.58
13713;DHT22;6928;50.546;7.120;2022-10-31T09:13:40;12.04;88.59
13713;DHT22;6928;50.546;7.120;2022-10-31T09:16:07;12.31;88.26
13713;DHT22;6928;50.546;7.120;2022-10-31T09:18:34;12.31;87.93
13713;DHT22;6928;50.546;7.120;2022-10-31T09:21:01;12.27;88.17
13713;DHT22;6928;50.546;7.120;2022-10-31T09:23:28;12.22;88.24
13713;DHT22;6928;50.546;7.120;2022-10-31T09:26:00;12.41;87.88
13713;DHT22;6928;50.546;7.120;2022-10-31T09:28:27;12.42;87.76
13713;DHT22;6928;50.546;7.120;2022-10-31T09:30:54;12.38;87.47
13713;DHT22;6928;50.546;7.120;2022-10-31T09:33:21;12.46;87.99
13713;DHT22;6928;50.546;7.120;2022-10-31T09:35:49;12.42;87.14
13713;DHT22;6928;50.546;7.120;2022-10-31T09:38:17;12.63;87.02
13713;DHT22;6928;50.546;7.120;2022-10-31T09:40:47;12.81;86.79
13713;DHT22;6928;50.546;7.120;2022-10-31T09:43:25;13.02;86.74
13713;DHT22;6928;50.546;7.120;2022-10-31T09:46:04;13.15;86.21
13713;DHT22;6928;50.546;7.120;2022-10-31T09:48:56;13.03;85.75
13713;DHT22;6928;50.546;7.120;2022-10-31T09:51:30;13.20;86.37
13713;DHT22;6928;50.546;7.120;2022-10-31T09:54:04;13.31;85.83
13713;DHT22;6928;50.546;7.120;2022-10-31T09:56:32;13.31;85.89
13713;DHT22;6928;50.546;7.120;2022-10-31T09:59:03;13.32;85.65
13713;DHT22;6928;50.546;7.120;2022-10-31T10:01:40;13.11;86.59
13713;DHT22;6928;50.546;7.120;2022-10-31T10:04:36;13.38;86.76
13713;DHT22;6928;50.546;7.120;2022-10-31T10:07:25;13.63;85.88
13713;DHT22;6928;50.546;7.120;2022-10-31T10:09:53;13.66;85.92
13713;DHT22;6928;50.546;7.120;2022-10-31T10:12:37;13.59;85.83
13713;DHT22;6928;50.546;7.120;2022-10-31T10:15:36;13.73;85.82
13713;DHT22;6928;50.546;7.120;2022-10-31T10:18:19;13.67;85.60
13713;DHT22;6928;50.546;7.120;2022-10-31T10:21:11;13.83;86.14
13713;DHT22;6928;50.546;7.120;2022-10-31T10:23:52;13.85;85.41
13713;DHT22;6928;50.546;7.120;2022-10-31T10:26:24;14.02;86.03
13713;DHT22;6928;50.546;7.120;2022-10-31T10:29:00;14.02;85.59
13713;DHT22;6928;50.546;7.120;2022-10-31T10:31:36;14.24;85.31
13713;DHT22;6928;50.546;7.120;2022-10-31T10:34:20;14.30;85.21
13713;DHT22;6928;50.546;7.120;2022-10-31T10:36:54;14.34;85.42
13713;DHT22;6928;50.546;7.120;2022-10-31T10:39:25;14.51;85.46
13713;DHT22;6928;50.546;7.120;2022-10-31T10:41:55;14.45;85.38
13713;DHT22;6928;50.546;7.120;2022-10-31T10:44:46;14.57;85.53
13713;DHT22;6928;50.546;7.120;2022-10-31T10:47:40;14.57;85.52
13713;DHT22;6928;50.546;7.120;2022-10-31T10:50:13;14.68;85.49
13713;DHT22;6928;50.546;7.120;2022-10-31T10:52:50;14.95;84.73
13713;DHT22;6928;50.546;7.120;2022-10-31T10:55:32;14.91;84.81
13713;DHT22;6928;50.546;7.120;2022-10-31T10:58:04;15.06;84.78
13713;DHT22;6928;50.546;7.120;2022-10-31T11:00:36;15.00;84.82
13713;DHT22;6928;50.546;7.120;2022-10-31T11:03:05;15.02;85.11
13713;DHT22;6928;50.546;7.120;2022-10-31T11:05:36;15.07;84.35
13713;DHT22;6928;50.546;7.120;2022-10-31T11:08:06;15.32;84.62
13713;DHT22;6928;50.546;7.120;2022-10-31T11:10:34;15.39;84.63
13713;DHT22;6928;50.546;7.120;2022-10-31T11:13:21;15.43;84.10
13713;DHT22;6928;50.546;7.120;2022-10-31T11:15:57;15.40;84.64
13713;DHT22;6928;50.546;7.120;2022-10-31T11:18:29;15.64;83.61
13713;DHT22;6928;50.546;7.120;2022-10-31T11:20:58;15.81;83.01
13713;DHT22;6928;50.546;7.120;2022-10-31T11:23:27;15.79;82.80
13713;DHT22;6928;50.546;7.120;2022-10-31T11:25:56;15.95;82.74
13713;DHT22;6928;50.546;7.120;2022-10-31T11:28:24;15.98;82.65
13713;DHT22;6928;50.546;7.120;2022-10-31T11:30:55;15.98;82.96
13713;DHT22;6928;50.546;7.120;2022-10-31T11:33:29;16.16;82.22
13713;DHT22;6928;50.546;7.120;2022-10-31T11:35:58;16.18;82.43
13713;DHT22;6928;50.546;7.120;2022-10-31T11:38:33;16.29;81.38
13713;DHT22;6928;50.546;7.120;2022-10-31T11:41:10;16.67;78.29
13713;DHT22;6928;50.546;7.120;2022-10-31T11:43:39;16.75;78.41
13713;DHT22;6928;50.546;7.120;2022-10-31T11:46:17;16.83;77.16
13713;DHT22;6928;50.546;7.120;2022-10-31T11:48:49;16.81;77.17
13713;DHT22;6928;50.546;7.120;2022-10-31T11:51:21;16.88;76.66
13713;DHT22;6928;50.546;7.120;2022-10-31T11:53:52;16.97;76.54
13713;DHT22;6928;50.546;7.120;2022-10-31T11:56:20;16.98;76.08
13713;DHT22;6928;50.546;7.120;2022-10-31T11:58:55;16.95;75.96
13713;DHT22;6928;50.546;7.120;2022-10-31T12:01:25;17.00;76.02
13713;DHT22;6928;50.546;7.120;2022-10-31T12:04:04;17.04;75.33
13713;DHT22;6928;50.546;7.120;2022-10-31T12:06:35;17.12;75.24
13713;DHT22;6928;50.546;7.120;2022-10-31T12:09:09;17.12;74.85
13713;DHT22;6928;50.546;7.120;2022-10-31T12:11:50;17.15;75.46
13713;DHT22;6928;50.546;7.120;2022-10-31T12:14:32;17.04;75.51
13713;DHT22;6928;50.546;7.120;2022-10-31T12:17:06;17.15;74.69
13713;DHT22;6928;50.546;7.120;2022-10-31T12:19:45;17.02;75.21
13713;DHT22;6928;50.546;7.120;2022-10-31T12:22:24;17.11;75.12
13713;DHT22;6928;50.546;7.120;2022-10-31T12:25:17;17.01;75.39
13713;DHT22;6928;50.546;7.120;2022-10-31T12:28:02;17.00;75.72
13713;DHT22;6928;50.546;7.120;2022-10-31T12:30:46;16.97;76.10
13713;DHT22;6928;50.546;7.120;2022-10-31T12:33:34;16.98;76.02
13713;DHT22;6928;50.546;7.120;2022-10-31T12:36:26;16.95;76.57
13713;DHT22;6928;50.546;7.120;2022-10-31T12:39:11;16.94;76.91
13713;DHT22;6928;50.546;7.120;2022-10-31T12:41:49;16.92;76.68
13713;DHT22;6928;50.546;7.120;2022-10-31T12:47:50;16.95;76.63
13713;DHT22;6928;50.546;7.120;2022-10-31T12:50:38;16.95;76.67
13713;DHT22;6928;50.546;7.120;2022-10-31T12:53:36;16.98;76.52
13713;DHT22;6928;50.546;7.120;2022-10-31T12:56:18;17.07;76.42
13713;DHT22;6928;50.546;7.120;2022-10-31T12:59:04;17.05;76.41
13713;DHT22;6928;50.546;7.120;2022-10-31T13:01:37;17.11;76.32
13713;DHT22;6928;50.546;7.120;2022-10-31T13:04:12;17.11;76.03
13713;DHT22;6928;50.546;7.120;2022-10-31T13:06:45;17.23;76.02
13713;DHT22;6928;50.546;7.120;2022-10-31T13:09:18;17.35;75.95
13713;DHT22;6928;50.546;7.120;2022-10-31T13:11:50;17.39;75.63
13713;DHT22;6928;50.546;7.120;2022-10-31T13:14:25;17.39;75.69
13713;DHT22;6928;50.546;7.120;2022-10-31T13:16:55;17.43;75.93
13713;DHT22;6928;50.546;7.120;2022-10-31T13:19:27;17.46;75.80
13713;DHT22;6928;50.546;7.120;2022-10-31T13:22:07;17.52;75.65
13713;DHT22;6928;50.546;7.120;2022-10-31T13:24:41;17.49;75.35
13713;DHT22;6928;50.546;7.120;2022-10-31T13:27:15;17.47;75.36
13713;DHT22;6928;50.546;7.120;2022-10-31T13:29:57;17.49;75.57
13713;DHT22;6928;50.546;7.120;2022-10-31T13:32:27;17.40;76.06
13713;DHT22;6928;50.546;7.120;2022-10-31T13:34:56;17.53;75.27
13713;DHT22;6928;50.546;7.120;2022-10-31T13:37:32;17.60;74.89
13713;DHT22;6928;50.546;7.120;2022-10-31T13:40:21;17.53;76.00
13713;DHT22;6928;50.546;7.120;2022-10-31T13:42:59;17.50;75.88
13713;DHT22;6928;50.546;7.120;2022-10-31T13:45:29;17.60;75.23
13713;DHT22;6928;50.546;7.120;2022-10-31T13:47:59;17.69;74.71
13713;DHT22;6928;50.546;7.120;2022-10-31T13:50:28;17.73;75.63
13713;DHT22;6928;50.546;7.120;2022-10-31T13:53:12;17.70;76.02
13713;DHT22;6928;50.546;7.120;2022-10-31T13:55:43;17.54;75.92
13713;DHT22;6928;50.546;7.120;2022-10-31T13:58:23;17.50;76.16
13713;DHT22;6928;50.546;7.120;2022-10-31T14:01:13;17.54;76.34
13713;DHT22;6928;50.546;7.120;2022-10-31T14:03:43;17.59;75.89
13713;DHT22;6928;50.546;7.120;2022-10-31T14:06:11;17.63;75.91
13713;DHT22;6928;50.546;7.120;2022-10-31T14:08:46;17.74;75.32
13713;DHT22;6928;50.546;7.120;2022-10-31T14:11:24;17.76;74.96
13713;DHT22;6928;50.546;7.120;2022-10-31T14:13:55;17.81;74.56
13713;DHT22;6928;50.546;7.120;2022-10-31T14:16:24;17.87;74.63
13713;DHT22;6928;50.546;7.120;2022-10-31T14:18:59;17.86;74.42
13713;DHT22;6928;50.546;7.120;2022-10-31T14:21:30;17.96;74.74
13713;DHT22;6928;50.546;7.120;2022-10-31T14:23:58;18.04;74.47
13713;DHT22;6928;50.546;7.120;2022-10-31T14:26:37;18.08;74.08
13713;DHT22;6928;50.546;7.120;2022-10-31T14:29:25;18.05;74.34
13713;DHT22;6928;50.546;7.120;2022-10-31T14:31:59;18.02;74.32
13713;DHT22;6928;50.546;7.120;2022-10-31T14:34:30;18.12;74.40
13713;DHT22;6928;50.546;7.120;2022-10-31T14:40:28;18.12;73.64
13713;DHT22;6928;50.546;7.120;2022-10-31T14:43:22;18.18;74.24
13713;DHT22;6928;50.546;7.120;2022-10-31T14:46:00;18.19;73.43
13713;DHT22;6928;50.546;7.120;2022-10-31T14:49:00;18.04;74.45
13713;DHT22;6928;50.546;7.120;2022-10-31T14:51:35;18.12;74.42
13713;DHT22;6928;50.546;7.120;2022-10-31T14:54:05;18.15;74.11
13713;DHT22;6928;50.546;7.120;2022-10-31T14:56:35;18.17;75.19
13713;DHT22;6928;50.546;7.120;2022-10-31T14:59:09;18.07;74.74
13713;DHT22;6928;50.546;7.120;2022-10-31T15:01:39;17.96;74.98
13713;DHT22;6928;50.546;7.120;2022-10-31T15:04:17;17.86;74.92
13713;DHT22;6928;50.546;7.120;2022-10-31T15:06:49;18.01;73.60
13713;DHT22;6928;50.546;7.120;2022-10-31T15:09:24;17.86;75.09
13713;DHT22;6928;50.546;7.120;2022-10-31T15:11:53;17.80;75.36
13713;DHT22;6928;50.546;7.120;2022-10-31T15:14:25;17.84;75.00
13713;DHT22;6928;50.546;7.120;2022-10-31T15:16:53;17.76;75.06
13713;DHT22;6928;50.546;7.120;2022-10-31T15:19:24;17.80;75.15
13713;DHT22;6928;50.546;7.120;2022-10-31T15:21:54;17.60;75.92
13713;DHT22;6928;50.546;7.120;2022-10-31T15:24:24;17.54;76.03
13713;DHT22;6928;50.546;7.120;2022-10-31T15:26:55;17.50;75.99
13713;DHT22;6928;50.546;7.120;2022-10-31T15:29:26;17.50;76.16
13713;DHT22;6928;50.546;7.120;2022-10-31T15:31:56;17.46;76.28
13713;DHT22;6928;50.546;7.120;2022-10-31T15:34:38;17.38;76.55
13713;DHT22;6928;50.546;7.120;2022-10-31T15:37:09;17.26;76.95
13713;DHT22;6928;50.546;7.120;2022-10-31T15:39:37;17.14;77.41
13713;DHT22;6928;50.546;7.120;2022-10-31T15:42:13;17.18;77.22
13713;DHT22;6928;50.546;7.120;2022-10-31T15:44:43;17.07;77.73
13713;DHT22;6928;50.546;7.120;2022-10-31T15:47:17;17.09;77.27
13713;DHT22;6928;50.546;7.120;2022-10-31T15:49:49;16.94;77.65
13713;DHT22;6928;50.546;7.120;2022-10-31T15:52:28;17.00;77.38
13713;DHT22;6928;50.546;7.120;2022-10-31T15:54:59;16.85;78.15
13713;DHT22;6928;50.546;7.120;2022-10-31T15:57:27;16.85;78.38
13713;DHT22;6928;50.546;7.120;2022-10-31T15:59:58;16.77;78.39
13713;DHT22;6928;50.546;7.120;2022-10-31T16:02:26;16.74;78.40
13713;DHT22;6928;50.546;7.120;2022-10-31T16:04:57;16.74;78.61
13713;DHT22;6928;50.546;7.120;2022-10-31T16:07:25;16.61;79.12
13713;DHT22;6928;50.546;7.120;2022-10-31T16:09:54;16.51;79.37
13713;DHT22;6928;50.546;7.120;2022-10-31T16:12:23;16.46;79.49
13713;DHT22;6928;50.546;7.120;2022-10-31T16:14:53;16.49;79.52
13713;DHT22;6928;50.546;7.120;2022-10-31T16:17:25;16.39;79.97
13713;DHT22;6928;50.546;7.120;2022-10-31T16:19:56;16.34;79.99
13713;DHT22;6928;50.546;7.120;2022-10-31T16:22:27;16.36;79.88
13713;DHT22;6928;50.546;7.120;2022-10-31T16:25:00;16.29;80.00